createdAt,value
2022-12-01T00:02:08.183Z,30.75
2022-12-01T00:04:38.449Z,28.60
2022-12-01T00:07:11.212Z,35.45
2022-12-01T00:09:53.565Z,33.80
2022-12-01T00:12:23.884Z,32.75
2022-12-01T00:14:55.145Z,35.22
2022-12-01T00:17:27.106Z,32.40
2022-12-01T00:19:57.241Z,30.27
2022-12-01T00:22:32.948Z,33.83
2022-12-01T00:25:02.934Z,31.02
2022-12-01T00:27:32.919Z,34.17
2022-12-01T00:30:03.150Z,33.13
2022-12-01T00:32:33.510Z,34.15
2022-12-01T00:35:03.699Z,37.58
2022-12-01T00:37:37.599Z,35.40
2022-12-01T00:42:39.026Z,30.58
2022-12-01T00:45:10.297Z,36.35
2022-12-01T00:47:40.362Z,32.53
2022-12-01T00:50:13.402Z,32.67
2022-12-01T00:52:46.208Z,31.40
2022-12-01T00:55:16.268Z,34.70
2022-12-01T00:57:46.540Z,29.15
2022-12-01T01:00:18.380Z,35.58
2022-12-01T01:02:50.149Z,27.33
2022-12-01T01:05:20.335Z,29.95
2022-12-01T01:07:52.987Z,30.58
2022-12-01T01:10:23.356Z,28.45
2022-12-01T01:12:55.451Z,27.75
2022-12-01T01:15:26.581Z,28.98
2022-12-01T01:17:57.178Z,30.65
2022-12-01T01:20:27.357Z,26.38
2022-12-01T01:23:00.697Z,29.85
2022-12-01T01:25:31.004Z,30.40
2022-12-01T01:28:01.025Z,28.55
2022-12-01T01:30:32.967Z,28.38
2022-12-01T01:33:03.567Z,28.23
2022-12-01T01:35:33.658Z,28.27
2022-12-01T01:38:06.467Z,28.88
2022-12-01T01:40:36.524Z,31.95
2022-12-01T01:43:15.999Z,38.22
2022-12-01T01:45:47.225Z,28.85
2022-12-01T01:48:17.423Z,28.65
2022-12-01T01:50:47.488Z,27.88
2022-12-01T01:53:20.355Z,31.85
2022-12-01T01:55:50.452Z,32.45
2022-12-01T01:58:21.022Z,30.75
2022-12-01T02:00:54.275Z,32.63
2022-12-01T02:03:25.561Z,33.00
2022-12-01T02:05:57.489Z,38.20
2022-12-01T02:08:34.849Z,34.85
2022-12-01T02:11:51.367Z,32.42
2022-12-01T02:14:41.994Z,31.00
2022-12-01T02:17:25.606Z,30.92
2022-12-01T02:20:24.989Z,34.03
2022-12-01T02:23:14.053Z,34.00
2022-12-01T02:25:53.628Z,33.33
2022-12-01T02:28:50.132Z,33.88
2022-12-01T02:31:28.552Z,37.63
2022-12-01T02:34:02.417Z,31.23
2022-12-01T02:39:10.788Z,27.80
2022-12-01T02:41:45.945Z,30.48
2022-12-01T02:44:23.339Z,30.92
2022-12-01T02:47:03.098Z,30.95
2022-12-01T02:49:37.965Z,29.80
2022-12-01T02:52:09.690Z,32.95
2022-12-01T02:54:40.667Z,26.63
2022-12-01T02:57:14.592Z,28.27
2022-12-01T03:02:30.897Z,28.92
2022-12-01T03:05:06.694Z,29.37
2022-12-01T03:07:52.676Z,30.90
2022-12-01T03:10:29.126Z,32.45
2022-12-01T03:13:11.259Z,33.47
2022-12-01T03:15:52.010Z,27.23
2022-12-01T03:18:32.225Z,31.65
2022-12-01T03:21:07.629Z,28.90
2022-12-01T03:23:41.581Z,31.52
2022-12-01T03:26:16.557Z,37.25
2022-12-01T03:28:50.348Z,28.90
2022-12-01T03:34:01.779Z,28.42
2022-12-01T03:36:35.894Z,34.10
2022-12-01T03:39:10.393Z,31.95
2022-12-01T03:41:45.393Z,28.70
2022-12-01T03:44:20.085Z,30.70
2022-12-01T03:46:54.871Z,31.35
2022-12-01T03:49:28.965Z,30.23
2022-12-01T03:52:09.210Z,29.92
2022-12-01T03:54:50.426Z,32.25
2022-12-01T03:57:27.098Z,35.92
2022-12-01T03:59:57.890Z,38.83
2022-12-01T04:02:30.457Z,32.92
2022-12-01T04:05:03.131Z,38.78
2022-12-01T04:07:33.526Z,32.03
2022-12-01T04:10:03.985Z,37.50
2022-12-01T04:12:33.105Z,34.00
2022-12-01T04:15:05.768Z,35.75
2022-12-01T04:17:35.828Z,34.28
2022-12-01T04:20:10.838Z,32.88
2022-12-01T04:22:40.851Z,33.05
2022-12-01T04:25:12.633Z,33.40
2022-12-01T04:27:43.289Z,34.58
2022-12-01T04:30:14.457Z,30.48
2022-12-01T04:32:46.451Z,29.60
2022-12-01T04:35:19.256Z,35.85
2022-12-01T04:37:49.489Z,30.08
2022-12-01T04:40:21.660Z,34.92
2022-12-01T04:42:51.905Z,31.95
2022-12-01T04:45:22.868Z,35.83
2022-12-01T04:47:55.917Z,32.55
2022-12-01T04:50:28.610Z,32.70
2022-12-01T04:52:58.653Z,34.42
2022-12-01T04:55:28.695Z,33.40
2022-12-01T04:58:01.408Z,33.63
2022-12-01T05:00:33.153Z,35.70
2022-12-01T05:03:04.332Z,40.20
2022-12-01T05:05:37.162Z,34.20
2022-12-01T05:08:07.818Z,32.20
2022-12-01T05:10:38.570Z,37.60
2022-12-01T05:13:09.075Z,37.47
2022-12-01T05:15:41.876Z,34.88
2022-12-01T05:18:11.990Z,35.15
2022-12-01T05:20:57.013Z,32.97
2022-12-01T05:23:27.605Z,35.50
2022-12-01T05:25:58.127Z,40.58
2022-12-01T05:28:29.450Z,37.67
2022-12-01T05:31:00.892Z,39.67
2022-12-01T05:33:32.606Z,39.78
2022-12-01T05:36:05.584Z,29.90
2022-12-01T05:38:35.872Z,40.78
2022-12-01T05:41:05.923Z,37.83
2022-12-01T05:43:36.046Z,44.95
2022-12-01T05:46:07.091Z,45.53
2022-12-01T05:48:37.149Z,47.28
2022-12-01T05:51:17.659Z,46.42
2022-12-01T05:53:48.378Z,44.53
2022-12-01T05:56:18.462Z,43.85
2022-12-01T05:58:48.493Z,46.08
2022-12-01T06:01:18.689Z,47.97
2022-12-01T06:03:48.901Z,39.47
2022-12-01T06:06:21.781Z,43.45
2022-12-01T06:08:52.166Z,44.60
2022-12-01T06:11:22.367Z,43.03
2022-12-01T06:13:52.375Z,51.53
2022-12-01T06:16:22.475Z,44.50
2022-12-01T06:18:52.486Z,35.42
2022-12-01T06:21:25.339Z,43.65
2022-12-01T06:23:55.330Z,38.42
2022-12-01T06:26:25.357Z,42.05
2022-12-01T06:28:55.391Z,45.05
2022-12-01T06:31:25.510Z,45.08
2022-12-01T06:33:55.811Z,38.72
2022-12-01T06:36:28.830Z,42.33
2022-12-01T06:38:58.925Z,46.47
2022-12-01T06:41:28.946Z,44.70
2022-12-01T06:43:59.007Z,52.75
2022-12-01T06:46:29.628Z,58.95
2022-12-01T06:49:00.004Z,57.45
2022-12-01T06:51:34.441Z,54.08
2022-12-01T06:54:05.804Z,61.08
2022-12-01T06:56:36.106Z,56.55
2022-12-01T06:59:06.405Z,53.05
2022-12-01T07:01:36.934Z,51.92
2022-12-01T07:04:07.216Z,43.60
2022-12-01T07:06:39.878Z,38.75
2022-12-01T07:09:09.900Z,43.47
2022-12-01T07:11:39.946Z,48.65
2022-12-01T07:14:10.337Z,47.17
2022-12-01T07:16:41.140Z,41.35
2022-12-01T07:19:11.374Z,41.67
2022-12-01T07:21:44.234Z,44.70
2022-12-01T07:24:15.733Z,45.13
2022-12-01T07:26:46.601Z,44.03
2022-12-01T07:29:16.714Z,42.13
2022-12-01T07:31:48.100Z,38.47
2022-12-01T07:34:18.421Z,43.08
2022-12-01T07:36:51.568Z,42.03
2022-12-01T07:39:21.701Z,44.05
2022-12-01T07:41:51.704Z,33.15
2022-12-01T07:44:21.907Z,39.83
2022-12-01T07:46:52.089Z,42.13
2022-12-01T07:49:22.355Z,38.13
2022-12-01T07:51:55.033Z,34.33
2022-12-01T07:54:26.117Z,38.10
2022-12-01T07:56:56.127Z,33.50
2022-12-01T07:59:26.162Z,39.92
2022-12-01T08:01:56.283Z,37.08
2022-12-01T08:04:26.802Z,36.17
2022-12-01T08:06:59.751Z,42.00
2022-12-01T08:09:30.594Z,38.40
2022-12-01T08:12:01.920Z,38.47
2022-12-01T08:14:31.930Z,35.75
2022-12-01T08:17:29.290Z,37.15
2022-12-01T08:19:59.314Z,30.42
2022-12-01T08:22:32.278Z,39.85
2022-12-01T08:25:02.521Z,34.23
2022-12-01T08:27:32.702Z,35.17
2022-12-01T08:30:02.864Z,35.10
2022-12-01T08:32:33.852Z,34.03
2022-12-01T08:35:04.016Z,35.58
2022-12-01T08:37:36.804Z,35.55
2022-12-01T08:40:08.048Z,36.33
2022-12-01T08:42:38.348Z,36.88
2022-12-01T08:45:13.093Z,42.90
2022-12-01T08:47:44.592Z,35.05
2022-12-01T08:50:15.686Z,33.55
2022-12-01T08:52:48.586Z,35.90
2022-12-01T08:55:18.740Z,37.80
2022-12-01T08:57:49.158Z,41.65
2022-12-01T09:00:22.637Z,37.45
2022-12-01T09:03:02.153Z,37.92
2022-12-01T09:05:32.205Z,38.75
2022-12-01T09:08:19.710Z,36.63
2022-12-01T09:10:54.263Z,35.60
2022-12-01T09:13:24.452Z,32.95
2022-12-01T09:16:00.668Z,34.88
2022-12-01T09:18:31.628Z,38.83
2022-12-01T09:21:02.109Z,31.05
2022-12-01T09:23:34.820Z,37.03
2022-12-01T09:26:07.789Z,36.42
2022-12-01T09:28:39.842Z,34.03
2022-12-01T09:31:13.215Z,35.70
2022-12-01T09:33:43.708Z,37.17
2022-12-01T09:36:14.518Z,33.08
2022-12-01T09:38:47.404Z,41.13
2022-12-01T09:41:23.452Z,45.50
2022-12-01T09:43:59.471Z,34.47
2022-12-01T09:46:35.735Z,38.90
2022-12-01T09:49:07.364Z,33.65
2022-12-01T09:51:38.525Z,32.38
2022-12-01T09:54:15.934Z,30.52
2022-12-01T09:56:50.486Z,31.67
2022-12-01T09:59:25.360Z,33.58
2022-12-01T10:02:01.105Z,36.80
2022-12-01T10:04:36.242Z,33.88
2022-12-01T10:07:09.284Z,30.75
2022-12-01T10:09:45.864Z,38.17
2022-12-01T10:12:18.739Z,36.45
2022-12-01T10:14:50.487Z,34.80
2022-12-01T10:17:28.591Z,34.90
2022-12-01T10:20:04.705Z,32.72
2022-12-01T10:22:53.031Z,32.35
2022-12-01T10:25:28.271Z,32.28
2022-12-01T10:28:15.788Z,30.65
2022-12-01T10:30:53.691Z,40.78
2022-12-01T10:33:27.362Z,33.05
2022-12-01T10:35:57.613Z,37.25
2022-12-01T10:38:31.272Z,39.08
2022-12-01T10:41:09.466Z,37.53
2022-12-01T10:43:44.320Z,31.65
2022-12-01T10:46:24.551Z,34.38
2022-12-01T10:48:59.780Z,38.85
2022-12-01T10:51:31.226Z,37.30
2022-12-01T10:54:02.956Z,41.40
2022-12-01T10:56:36.851Z,31.42
2022-12-01T11:01:38.532Z,36.67
2022-12-01T11:04:11.479Z,33.92
2022-12-01T11:06:42.572Z,37.15
2022-12-01T11:09:26.388Z,35.72
2022-12-01T11:14:44.022Z,33.50
2022-12-01T11:17:30.056Z,34.97
2022-12-01T11:20:00.564Z,36.25
2022-12-01T11:22:33.444Z,32.45
2022-12-01T11:25:05.868Z,32.80
2022-12-01T11:27:48.581Z,32.53
2022-12-01T11:30:25.999Z,29.33
2022-12-01T11:32:58.542Z,31.80
2022-12-01T11:35:31.752Z,36.65
2022-12-01T11:40:57.865Z,30.73
2022-12-01T11:43:32.721Z,33.58
2022-12-01T11:46:06.895Z,34.08
2022-12-01T11:48:38.471Z,31.27
2022-12-01T11:51:13.874Z,32.97
2022-12-01T11:53:45.177Z,36.40
2022-12-01T11:56:25.140Z,33.65
2022-12-01T11:59:03.332Z,32.50
2022-12-01T12:01:42.635Z,29.00
2022-12-01T12:04:30.865Z,30.17
2022-12-01T12:07:11.052Z,33.63
2022-12-01T12:09:59.901Z,35.25
2022-12-01T12:12:45.474Z,33.70
2022-12-01T12:15:36.993Z,30.98
2022-12-01T12:18:30.908Z,32.42
2022-12-01T12:21:11.548Z,33.78
2022-12-01T12:24:06.879Z,35.10
2022-12-01T12:26:44.234Z,34.00
2022-12-01T12:29:34.388Z,30.17
2022-12-01T12:32:22.787Z,32.45
2022-12-01T12:35:01.205Z,37.05
2022-12-01T12:37:42.985Z,26.58
2022-12-01T12:40:29.503Z,26.75
2022-12-01T12:43:13.263Z,28.02
2022-12-01T12:45:53.449Z,33.42
2022-12-01T12:48:38.697Z,29.10
2022-12-01T12:51:25.524Z,28.23
2022-12-01T12:54:03.190Z,31.23
2022-12-01T12:56:35.612Z,29.60
2022-12-01T12:59:12.110Z,29.40
2022-12-01T13:01:47.578Z,28.02
2022-12-01T13:04:25.687Z,25.70
2022-12-01T13:07:04.316Z,27.77
2022-12-01T13:09:39.356Z,30.35
2022-12-01T13:12:16.057Z,28.52
2022-12-01T13:14:50.887Z,33.83
2022-12-01T13:17:25.499Z,29.02
2022-12-01T13:19:59.097Z,29.23
2022-12-01T13:22:35.331Z,27.55
2022-12-01T13:25:07.834Z,27.40
2022-12-01T13:27:40.064Z,28.60
2022-12-01T13:30:21.593Z,27.77
2022-12-01T13:33:03.623Z,26.80
2022-12-01T13:35:39.621Z,37.05
2022-12-01T13:38:25.040Z,29.83
2022-12-01T13:41:13.562Z,40.45
2022-12-01T13:43:56.538Z,34.92
2022-12-01T13:46:29.401Z,32.45
2022-12-01T13:49:01.230Z,25.13
2022-12-01T13:52:09.782Z,33.30
2022-12-01T13:54:41.021Z,26.60
2022-12-01T13:57:17.040Z,26.20
2022-12-01T14:00:08.575Z,26.70
2022-12-01T14:02:45.000Z,29.02
2022-12-01T14:05:44.931Z,34.25
2022-12-01T14:08:24.719Z,29.95
2022-12-01T14:10:57.749Z,36.08
2022-12-01T14:13:28.608Z,32.55
2022-12-01T14:16:01.799Z,35.33
2022-12-01T14:18:41.114Z,33.92
2022-12-01T14:21:14.802Z,32.47
2022-12-01T14:24:04.525Z,38.03
2022-12-01T14:26:35.286Z,34.65
2022-12-01T14:29:33.130Z,28.45
2022-12-01T14:32:24.864Z,30.40
2022-12-01T14:35:13.948Z,33.05
2022-12-01T14:37:53.134Z,36.08
2022-12-01T14:40:33.569Z,31.50
2022-12-01T14:43:18.716Z,37.63
2022-12-01T14:45:58.421Z,36.28
2022-12-01T14:48:35.893Z,37.45
2022-12-01T14:51:22.480Z,35.10
2022-12-01T14:53:55.400Z,31.42
2022-12-01T14:56:30.139Z,31.90
2022-12-01T14:59:02.866Z,33.50
2022-12-01T15:01:37.189Z,31.50
2022-12-01T15:04:09.183Z,36.60
2022-12-01T15:06:40.709Z,34.05
2022-12-01T15:09:34.178Z,43.83
2022-12-01T15:12:09.644Z,40.03
2022-12-01T15:14:43.098Z,46.97
2022-12-01T15:17:32.187Z,50.42
2022-12-01T15:20:02.745Z,51.78
2022-12-01T15:22:34.747Z,48.47
2022-12-01T15:25:10.364Z,47.95
2022-12-01T15:27:43.279Z,57.72
2022-12-01T15:30:18.947Z,51.90
2022-12-01T15:32:49.640Z,57.42
2022-12-01T15:35:22.759Z,71.80
2022-12-01T15:37:54.347Z,73.80
2022-12-01T15:41:06.243Z,81.13
2022-12-01T15:43:25.210Z,71.68
2022-12-01T15:45:59.930Z,71.72
2022-12-01T15:48:33.083Z,70.15
2022-12-01T15:51:08.572Z,101.93
2022-12-01T15:53:42.820Z,91.70
2022-12-01T15:56:14.029Z,83.25
2022-12-01T15:58:49.696Z,86.00
2022-12-01T16:01:21.488Z,90.93
2022-12-01T16:03:56.625Z,96.85
2022-12-01T16:06:30.839Z,114.57
2022-12-01T16:09:04.214Z,101.82
2022-12-01T16:11:35.194Z,88.63
2022-12-01T16:14:24.883Z,104.55
2022-12-01T16:16:55.874Z,82.95
2022-12-01T16:19:30.271Z,83.45
2022-12-01T16:22:07.591Z,92.85
2022-12-01T16:24:42.440Z,105.40
2022-12-01T16:27:23.100Z,103.35
2022-12-01T16:29:57.612Z,99.10
2022-12-01T16:32:35.911Z,105.75
2022-12-01T16:35:06.590Z,101.53
2022-12-01T16:37:36.822Z,92.30
2022-12-01T16:40:09.575Z,88.30
2022-12-01T16:42:39.590Z,86.95
2022-12-01T16:45:15.296Z,85.10
2022-12-01T16:47:46.432Z,75.95
2022-12-01T16:50:17.211Z,80.32
2022-12-01T16:52:47.647Z,77.97
2022-12-01T16:55:34.590Z,74.00
2022-12-01T16:58:04.836Z,67.22
2022-12-01T17:00:41.469Z,70.90
2022-12-01T17:03:14.676Z,75.13
2022-12-01T17:05:48.134Z,79.53
2022-12-01T17:08:18.686Z,79.90
2022-12-01T17:10:52.948Z,78.68
2022-12-01T17:13:24.853Z,80.88
2022-12-01T17:16:08.121Z,81.10
2022-12-01T17:18:39.411Z,73.73
2022-12-01T17:21:11.751Z,88.47
2022-12-01T17:23:42.303Z,78.53
2022-12-01T17:26:14.991Z,85.53
2022-12-01T17:28:45.241Z,78.63
2022-12-01T17:31:18.493Z,79.97
2022-12-01T17:33:48.641Z,75.78
2022-12-01T17:36:19.306Z,79.72
2022-12-01T17:38:51.229Z,73.63
2022-12-01T17:41:25.533Z,85.32
2022-12-01T17:43:55.711Z,88.38
2022-12-01T17:46:30.289Z,109.22
2022-12-01T17:49:00.619Z,134.43
2022-12-01T17:51:30.980Z,137.50
2022-12-01T17:54:01.002Z,129.27
2022-12-01T17:56:31.188Z,106.00
2022-12-01T17:59:01.476Z,102.88
2022-12-01T18:01:35.372Z,93.65
2022-12-01T18:04:05.461Z,89.75
2022-12-01T18:06:35.966Z,89.95
2022-12-01T18:09:06.619Z,100.45
2022-12-01T18:11:38.409Z,89.30
2022-12-01T18:14:08.650Z,89.40
2022-12-01T18:16:42.494Z,99.20
2022-12-01T18:21:44.092Z,116.95
2022-12-01T18:24:14.874Z,99.88
2022-12-01T18:26:45.917Z,122.53
2022-12-01T18:29:18.789Z,124.68
2022-12-01T18:31:51.671Z,125.10
2022-12-01T18:34:23.037Z,115.57
2022-12-01T18:36:53.409Z,109.85
2022-12-01T18:39:23.637Z,124.97
2022-12-01T18:41:53.822Z,134.77
2022-12-01T18:44:24.128Z,129.15
2022-12-01T18:46:57.942Z,124.65
2022-12-01T18:52:00.021Z,134.80
2022-12-01T18:54:30.374Z,128.55
2022-12-01T18:57:00.528Z,135.20
2022-12-01T18:59:30.732Z,129.45
2022-12-01T19:02:03.720Z,133.98
2022-12-01T19:04:33.972Z,128.38
2022-12-01T19:07:04.585Z,128.82
2022-12-01T19:09:34.664Z,134.98
2022-12-01T19:12:04.823Z,129.82
2022-12-01T19:14:34.952Z,135.65
2022-12-01T19:17:07.744Z,134.15
2022-12-01T19:19:37.901Z,135.85
2022-12-01T19:22:08.125Z,130.68
2022-12-01T19:24:38.362Z,130.30
2022-12-01T19:27:08.438Z,129.52
2022-12-01T19:29:38.640Z,130.27
2022-12-01T19:32:12.014Z,121.28
2022-12-01T19:34:42.099Z,127.10
2022-12-01T19:37:15.118Z,142.25
2022-12-01T19:39:46.795Z,144.80
2022-12-01T19:42:18.495Z,152.10
2022-12-01T19:44:48.934Z,147.18
2022-12-01T19:47:22.645Z,150.70
2022-12-01T19:49:52.762Z,145.60
2022-12-01T19:52:23.016Z,160.50
2022-12-01T19:54:53.656Z,139.02
2022-12-01T19:57:27.187Z,126.45
2022-12-01T19:59:57.591Z,133.02
2022-12-01T20:02:32.938Z,129.20
2022-12-01T20:05:03.912Z,125.53
2022-12-01T20:07:34.561Z,129.32
2022-12-01T20:10:05.968Z,145.13
2022-12-01T20:12:38.342Z,116.63
2022-12-01T20:15:10.338Z,131.07
2022-12-01T20:17:43.197Z,131.38
2022-12-01T20:20:16.019Z,117.15
2022-12-01T20:22:46.195Z,127.70
2022-12-01T20:25:16.876Z,126.82
2022-12-01T20:27:48.249Z,130.52
2022-12-01T20:30:18.848Z,110.70
2022-12-01T20:32:52.286Z,119.57
2022-12-01T20:35:22.715Z,114.43
2022-12-01T20:37:54.045Z,124.00
2022-12-01T20:40:25.241Z,103.00
2022-12-01T20:42:55.284Z,111.03
2022-12-01T20:45:26.165Z,108.93
2022-12-01T20:47:59.103Z,100.15
2022-12-01T20:50:29.508Z,104.95
2022-12-01T20:52:59.760Z,101.50
2022-12-01T20:55:31.155Z,104.05
2022-12-01T20:58:03.129Z,97.57
2022-12-01T21:00:33.875Z,102.53
2022-12-01T21:03:06.922Z,97.20
2022-12-01T21:05:37.266Z,103.57
2022-12-01T21:08:09.668Z,93.20
2022-12-01T21:10:40.624Z,94.70
2022-12-01T21:13:33.255Z,95.88
2022-12-01T21:16:10.860Z,91.68
2022-12-01T21:18:53.466Z,97.38
2022-12-01T21:21:27.709Z,94.35
2022-12-01T21:24:11.593Z,106.47
2022-12-01T21:26:44.004Z,86.22
2022-12-01T21:29:21.097Z,88.88
2022-12-01T21:31:54.796Z,95.35
2022-12-01T21:34:28.941Z,88.15
2022-12-01T21:37:06.348Z,86.32
2022-12-01T21:39:38.085Z,84.03
2022-12-01T21:42:19.075Z,78.13
2022-12-01T21:44:49.859Z,82.35
2022-12-01T21:47:24.172Z,79.63
2022-12-01T21:49:59.133Z,83.05
2022-12-01T21:52:33.387Z,81.50
2022-12-01T21:55:06.552Z,75.40
2022-12-01T21:57:48.088Z,71.43
2022-12-01T22:00:31.593Z,77.43
2022-12-01T22:03:20.616Z,72.55
2022-12-01T22:06:21.447Z,73.70
2022-12-01T22:08:48.693Z,77.00
2022-12-01T22:11:22.080Z,70.80
2022-12-01T22:13:58.106Z,71.35
2022-12-01T22:16:33.905Z,76.00
2022-12-01T22:19:11.453Z,73.45
2022-12-01T22:21:48.254Z,76.82
2022-12-01T22:24:25.077Z,78.82
2022-12-01T22:27:06.023Z,77.68
2022-12-01T22:29:42.319Z,81.70
2022-12-01T22:32:37.517Z,80.28
2022-12-01T22:35:27.283Z,74.80
2022-12-01T22:38:04.207Z,79.68
2022-12-01T22:40:42.797Z,71.20
2022-12-01T22:43:31.491Z,83.95
2022-12-01T22:46:25.321Z,103.07
2022-12-01T22:48:57.417Z,83.68
2022-12-01T22:51:33.946Z,79.15
2022-12-01T22:54:32.613Z,85.97
2022-12-01T22:57:08.317Z,76.70
2022-12-01T22:59:41.116Z,93.97
2022-12-01T23:02:21.103Z,87.80
2022-12-01T23:04:53.146Z,91.95
2022-12-01T23:07:31.839Z,92.82
2022-12-01T23:10:08.105Z,91.65
2022-12-01T23:12:39.540Z,102.32
2022-12-01T23:15:29.713Z,89.40
2022-12-01T23:18:02.016Z,99.45
2022-12-01T23:20:38.073Z,96.55
2022-12-01T23:23:13.921Z,92.13
2022-12-01T23:25:48.412Z,100.45
2022-12-01T23:28:18.524Z,93.72
2022-12-01T23:30:52.710Z,90.10
2022-12-01T23:33:25.643Z,91.57
2022-12-01T23:36:00.566Z,83.13
2022-12-01T23:38:37.581Z,90.05
2022-12-01T23:41:15.775Z,90.10
2022-12-01T23:43:48.141Z,87.88
2022-12-01T23:46:21.461Z,80.20
2022-12-01T23:48:55.453Z,78.25
2022-12-01T23:51:28.707Z,79.57
2022-12-01T23:54:02.449Z,88.65
2022-12-01T23:56:36.271Z,82.95
